Flight Track Log - Related Links

Times and Time Zones

All times are in EDT time to prevent confusion due to time zone crossing. See the ASQ5873 flight status page for this flight to view local times or setup timezone preferences in your user account.

Time Position Orientation Groundspeed Altitude Reporting Facility
EDT Latitude Longitude Course Direction KTS MPH feet Rate Location/Type
Tue 07:10:44 AM 36.1167 -86.6833 219° Southwest 161 185 1,100  Level Nashville TRACON
Tue 07:11:08 AM 36.1000 -86.7000 219° Southwest 166 191 2,500 2,571 Climbing Nashville TRACON
Tue 07:12:08 AM 36.1000 -86.7667 270° West 244 281 4,700 2,600 Climbing Nashville TRACON
Tue 07:13:08 AM 36.1667 -86.7667 360° North 293 337 7,700 2,597 Climbing Nashville TRACON
Tue 07:14:22 AM 36.2550 -86.7050 29° Northeast 288 331 10,500 2,015 Climbing Memphis Center
Tue 07:15:22 AM 36.3328 -86.6575 26° Northeast 293 337 12,200 1,650 Climbing Memphis Center
Tue 07:16:22 AM 36.4167 -86.6047 27° Northeast 319 367 13,800 1,550 Climbing Memphis Center
Tue 07:17:22 AM 36.5044 -86.5467 28° Northeast 344 396 15,300 1,650 Climbing Memphis Center
Tue 07:18:22 AM 36.5942 -86.4881 28° Northeast 354 407 17,100 1,700 Climbing Memphis Center
Tue 07:19:22 AM 36.6800 -86.4294 29° Northeast 360 414 18,700 1,800 Climbing Memphis Center
Tue 07:20:22 AM 36.7722 -86.3783 24° Northeast 360 414 20,700 1,900 Climbing Memphis Center
Tue 07:21:22 AM 36.8622 -86.3300 23° Northeast 348 400 22,500 1,696 Climbing Memphis Center
Tue 07:23:26 AM 37.0447 -86.2397 22° Northeast 353 406 25,900 1,581 Climbing Indianapolis Center
Tue 07:24:28 AM 37.1364 -86.1939 22° Northeast 352 405 27,400 1,463 Climbing Indianapolis Center
Tue 07:25:29 AM 37.2289 -86.1472 22° Northeast 353 406 28,900 787 Climbing Indianapolis Center
Tue 07:26:30 AM 37.3222 -86.0900 26° Northeast 365 420 29,000 49 Climbing Indianapolis Center
Tue 07:27:32 AM 37.4225 -86.0247 27° Northeast 396 456 29,000  Level Indianapolis Center
Tue 07:28:33 AM 37.5258 -85.9564 28° Northeast 413 475 29,000  Level Indianapolis Center
Tue 07:29:34 AM 37.6356 -85.8861 27° Northeast 422 486 29,000  Level Indianapolis Center
Tue 07:30:36 AM 37.7403 -85.8172 27° Northeast 424 488 29,000  Level Indianapolis Center
Tue 07:31:37 AM 37.8453 -85.7483 27° Northeast 424 488 29,000  Level Indianapolis Center
Tue 07:32:39 AM 37.9500 -85.6789 28° Northeast 423 487 29,000  Level Indianapolis Center
Tue 07:33:40 AM 38.0750 -85.5969 27° Northeast 422 486 29,000  Level Indianapolis Center
Tue 07:34:42 AM 38.1814 -85.5814 North 388 447 29,000  Level Indianapolis Center
Tue 07:35:43 AM 38.2842 -85.5847 359° North 371 427 29,000  Level Indianapolis Center
Tue 07:36:45 AM 38.3856 -85.5892 358° North 365 420 29,000  Level Indianapolis Center
Tue 07:37:46 AM 38.4842 -85.5931 358° North 356 410 29,000  Level Indianapolis Center
Tue 07:38:48 AM 38.5842 -85.5981 358° North 356 410 29,000 -98 Level Indianapolis Center
Tue 07:39:49 AM 38.6858 -85.6019 358° North 362 417 28,800 -732 Descending Indianapolis Center
Tue 07:40:51 AM 38.7906 -85.6056 358° North 371 427 27,500 -878 Descending Indianapolis Center
Tue 07:41:52 AM 38.8972 -85.6100 358° North 380 437 27,000 -244 Descending Indianapolis Center
Tue 07:42:54 AM 39.0228 -85.6167 358° North 376 433 27,000  Level Indianapolis Center
Tue 07:43:55 AM 39.1267 -85.6208 358° North 373 429 27,000  Level Indianapolis Center
Tue 07:44:57 AM 39.2297 -85.6242 359° North 371 427 27,000  Level Indianapolis Center
Tue 07:45:58 AM 39.3317 -85.6283 358° North 367 422 27,000  Level Indianapolis Center
Tue 07:47:00 AM 39.4233 -85.6325 358° North 334 384 27,000  Level Indianapolis Center
Tue 07:48:01 AM 39.5156 -85.6369 358° North 330 380 27,000 -293 Level Indianapolis Center
Tue 07:49:03 AM 39.6053 -85.6400 358° North 325 374 26,400 -1,122 Descending Indianapolis Center
Tue 07:50:04 AM 39.7119 -85.6450 358° North 328 377 24,700 -1,561 Descending Indianapolis Center
Tue 07:51:06 AM 39.8067 -85.6492 358° North 334 384 23,200 -1,415 Descending Indianapolis Center
Tue 07:52:07 AM 39.9069 -85.6533 358° North 346 398 21,800 -1,415 Descending Indianapolis Center
Tue 07:53:09 AM 40.0089 -85.6583 358° North 357 411 20,300 -1,317 Descending Indianapolis Center
Tue 07:54:10 AM 40.1144 -85.6625 358° North 369 425 19,100 -629 Descending Indianapolis Center
Tue 07:55:13 AM 40.2211 -85.6989 345° North 377 434 19,000 -48 Descending Chicago Center
Tue 07:56:14 AM 40.3258 -85.7392 344° North 389 448 19,000  Level Chicago Center
Tue 07:57:16 AM 40.4078 -85.8325 319° Northwest 390 449 19,000  Level Chicago Center
Tue 07:58:17 AM 40.4819 -85.9378 313° West 391 450 19,000  Level Chicago Center
Tue 07:59:19 AM 40.5578 -86.0439 313° West 397 457 19,000 -390 Level Chicago Center
Tue 08:00:20 AM 40.6333 -86.1506 313° West 398 458 18,200 -780 Descending Chicago Center
Tue 08:01:22 AM 40.7042 -86.2494 313° West 376 433 17,400 -537 Descending Chicago Center
Tue 08:02:23 AM 40.7747 -86.3497 313° West 373 429 17,100 -146 Descending Chicago Center
Tue 08:03:25 AM 40.8619 -86.4714 313° West 380 437 17,100  Level Chicago Center
Tue 08:04:28 AM 40.9353 -86.5769 313° West 386 444 17,100 -195 Level Chicago Center
Tue 08:05:28 AM 41.0092 -86.6828 313° West 389 448 16,700 -787 Descending Chicago Center
Tue 08:06:30 AM 41.0883 -86.7953 313° West 385 443 15,500 -1,065 Descending Chicago Center
Tue 08:07:32 AM 41.1586 -86.8956 313° West 376 433 14,500 -976 Descending Chicago Center
Tue 08:08:33 AM 41.2289 -86.9967 313° West 376 433 13,500 -1,317 Descending Chicago Center
Tue 08:09:35 AM 41.2958 -87.0939 313° West 363 418 11,800 -1,210 Descending Chicago Center
Tue 08:10:37 AM 41.3600 -87.1878 312° West 349 402 11,000 -414 Descending Chicago Center
Tue 08:11:31 AM 41.4333 -87.2667 321° Northwest 342 394 11,000  Level Chicago TRACON
Tue 08:12:37 AM 41.5167 -87.3667 318° Northwest 349 402 11,000  Level Chicago TRACON
Tue 08:13:31 AM 41.5833 -87.4500 317° Northwest 354 407 11,000 -48 Level Chicago TRACON
Tue 08:14:43 AM 41.6667 -87.5333 323° Northwest 287 330 10,900 -714 Descending Chicago TRACON
Tue 08:15:37 AM 41.7167 -87.6000 315° West 281 323 9,500 -1,548 Descending Chicago TRACON
Tue 08:16:47 AM 41.7722 -87.6572 322° Northwest 274 315 7,700 -1,240 Descending Chicago Center
Tue 08:17:38 AM 41.8333 -87.7000 332° Northwest 256 295 7,000 -378 Descending Chicago TRACON
Tue 08:18:38 AM 41.9167 -87.7000 360° North 294 338 7,000 -50 Level Chicago TRACON
Tue 08:19:38 AM 42.0000 -87.7000 360° North 271 312 6,900 -750 Descending Chicago TRACON
Tue 08:20:38 AM 42.0667 -87.6833 11° North 261 300 5,500 -1,263 Descending Chicago TRACON
Tue 08:21:32 AM 42.1167 -87.6667 14° North 256 295 4,500 -975 Descending Chicago TRACON
Tue 08:21:58 AM 42.1272 -87.6750 330° Northwest 250 288 4,200 -349 Descending Chicago Center
Tue 08:22:58 AM 42.1308 -87.7511 274° West 229 264 4,000 -480 Descending Chicago Center
Tue 08:23:38 AM 42.1000 -87.7833 218° Southwest 176 203 3,400 -894 Descending Chicago TRACON
Tue 08:24:32 AM 42.0667 -87.8167 217° Southwest 161 185 2,600 -850 Descending Chicago TRACON
Tue 08:25:38 AM 42.0333 -87.8500 217° Southwest 112 129 1,700 -700 Descending Chicago TRACON
Tue 08:26:32 AM 42.0167 -87.8833 236° Southwest 114 131 1,200 -556 Descending Chicago TRACON

Login

Don't have an account? Register now (free) for customized features, flight alerts, and more!